createdAt,value
2022-08-11T00:01:21.819Z,51.65
2022-08-11T00:03:56.786Z,51.50
2022-08-11T00:06:30.447Z,51.94
2022-08-11T00:09:02.110Z,51.78
2022-08-11T00:11:37.711Z,51.63
2022-08-11T00:14:19.287Z,52.09
2022-08-11T00:17:03.925Z,52.30
2022-08-11T00:20:12.252Z,51.84
2022-08-11T00:22:30.121Z,51.47
2022-08-11T00:25:02.674Z,51.47
2022-08-11T00:27:38.027Z,52.04
2022-08-11T00:30:12.237Z,52.33
2022-08-11T00:32:44.906Z,52.38
2022-08-11T00:35:54.046Z,52.57
2022-08-11T00:38:16.286Z,53.00
2022-08-11T00:40:56.509Z,53.17
2022-08-11T00:43:49.262Z,52.47
2022-08-11T00:46:40.099Z,52.31
2022-08-11T00:49:23.014Z,52.81
2022-08-11T00:52:14.783Z,53.08
2022-08-11T00:56:11.747Z,53.39
2022-08-11T00:59:34.306Z,52.80
2022-08-11T01:02:48.505Z,52.87
2022-08-11T01:05:51.717Z,53.65
2022-08-11T01:09:21.926Z,53.77
2022-08-11T01:12:36.047Z,54.42
2022-08-11T01:15:59.598Z,54.21
2022-08-11T01:20:47.915Z,54.33
2022-08-11T01:23:50.218Z,54.32
2022-08-11T01:27:20.010Z,54.82
2022-08-11T01:30:49.207Z,54.72
2022-08-11T01:34:32.653Z,55.06
2022-08-11T01:37:31.631Z,55.12
2022-08-11T01:40:58.373Z,54.69
2022-08-11T01:44:38.813Z,54.50
2022-08-11T01:47:53.090Z,55.01
2022-08-11T01:50:47.694Z,55.36
2022-08-11T01:53:40.110Z,55.51
2022-08-11T01:56:30.981Z,55.82
2022-08-11T01:59:17.659Z,55.42
2022-08-11T02:02:21.533Z,55.61
2022-08-11T02:05:00.965Z,55.82
2022-08-11T02:07:37.531Z,55.49
2022-08-11T02:10:42.317Z,55.89
2022-08-11T02:13:38.395Z,56.03
2022-08-11T02:16:34.543Z,55.44
2022-08-11T02:19:39.659Z,55.85
2022-08-11T02:22:36.386Z,56.44
2022-08-11T02:25:13.855Z,56.67
2022-08-11T02:27:54.671Z,56.61
2022-08-11T02:30:32.653Z,56.60
2022-08-11T02:33:23.307Z,56.45
2022-08-11T02:36:04.777Z,56.23
2022-08-11T02:38:43.537Z,56.24
2022-08-11T02:41:43.309Z,56.86
2022-08-11T02:44:31.223Z,56.94
2022-08-11T02:47:14.637Z,56.96
2022-08-11T02:50:03.458Z,56.97
2022-08-11T02:52:46.582Z,56.84
2022-08-11T02:55:56.485Z,57.24
2022-08-11T02:58:37.948Z,56.65
2022-08-11T03:01:18.719Z,56.54
2022-08-11T03:04:02.062Z,57.14
2022-08-11T03:06:40.119Z,57.53
2022-08-11T03:09:20.446Z,57.34
2022-08-11T03:12:24.560Z,57.47
2022-08-11T03:15:21.348Z,58.02
2022-08-11T03:18:05.575Z,57.88
2022-08-11T03:20:46.591Z,57.83
2022-08-11T03:23:30.952Z,57.49
2022-08-11T03:26:11.148Z,58.34
2022-08-11T03:28:52.946Z,57.82
2022-08-11T03:31:32.139Z,57.63
2022-08-11T03:34:08.380Z,57.80
2022-08-11T03:37:47.355Z,57.63
2022-08-11T03:40:55.006Z,57.96
2022-08-11T03:43:58.600Z,57.96
2022-08-11T03:46:52.835Z,58.16
2022-08-11T03:49:39.356Z,58.27
2022-08-11T03:52:22.850Z,58.53
2022-08-11T03:55:05.624Z,58.41
2022-08-11T03:58:46.194Z,58.80
2022-08-11T04:02:04.959Z,58.69
2022-08-11T04:05:42.535Z,58.33
2022-08-11T04:09:16.934Z,58.81
2022-08-11T04:12:45.618Z,59.31
2022-08-11T04:16:11.598Z,59.01
2022-08-11T04:19:49.877Z,59.07
2022-08-11T04:22:51.351Z,59.43
2022-08-11T04:25:58.057Z,59.63
2022-08-11T04:29:15.239Z,59.64
2022-08-11T04:32:05.951Z,59.45
2022-08-11T04:35:18.853Z,59.37
2022-08-11T04:38:34.073Z,59.91
2022-08-11T04:42:09.887Z,60.02
2022-08-11T04:45:36.254Z,60.22
2022-08-11T04:49:06.568Z,60.22
2022-08-11T04:52:38.283Z,60.31
2022-08-11T04:56:03.416Z,60.47
2022-08-11T04:59:27.463Z,60.51
2022-08-11T05:03:00.093Z,60.38
2022-08-11T05:06:07.922Z,60.48
2022-08-11T05:09:25.233Z,60.49
2022-08-11T05:12:27.231Z,60.36
2022-08-11T05:15:16.268Z,60.78
2022-08-11T05:18:15.710Z,61.20
2022-08-11T05:21:09.734Z,60.78
2022-08-11T05:24:02.522Z,61.10
2022-08-11T05:27:02.132Z,61.26
2022-08-11T05:30:01.634Z,61.36
2022-08-11T05:33:00.984Z,61.32
2022-08-11T05:36:00.590Z,61.60
2022-08-11T05:38:51.847Z,61.49
2022-08-11T05:41:42.371Z,61.43
2022-08-11T05:44:37.405Z,61.50
2022-08-11T05:47:25.111Z,61.75
2022-08-11T05:50:13.565Z,61.63
2022-08-11T05:53:09.340Z,61.47
2022-08-11T05:56:02.480Z,61.52
2022-08-11T05:58:42.319Z,61.25
2022-08-11T06:01:15.793Z,61.05
2022-08-11T06:04:04.463Z,60.84
2022-08-11T06:06:33.992Z,60.56
2022-08-11T06:09:03.794Z,60.51
2022-08-11T06:11:44.168Z,60.19
2022-08-11T06:14:16.643Z,60.36
2022-08-11T06:16:52.043Z,60.34
2022-08-11T06:19:25.014Z,60.29
2022-08-11T06:21:55.842Z,59.91
2022-08-11T06:24:25.168Z,59.90
2022-08-11T06:27:13.546Z,59.97
2022-08-11T06:29:54.716Z,59.66
2022-08-11T06:32:30.396Z,59.58
2022-08-11T06:35:23.354Z,59.33
2022-08-11T06:38:16.320Z,58.98
2022-08-11T06:41:09.694Z,58.68
2022-08-11T06:43:55.198Z,58.95
2022-08-11T06:46:31.796Z,58.38
2022-08-11T06:49:04.815Z,58.11
2022-08-11T06:51:37.269Z,57.74
2022-08-11T06:54:14.824Z,57.13
2022-08-11T06:57:28.328Z,56.72
2022-08-11T07:00:10.149Z,56.77
2022-08-11T07:02:49.719Z,55.94
2022-08-11T07:05:28.467Z,56.26
2022-08-11T07:09:04.034Z,56.10
2022-08-11T07:12:52.322Z,55.14
2022-08-11T07:16:10.667Z,54.40
2022-08-11T07:18:54.849Z,54.50
2022-08-11T07:22:01.794Z,52.60
2022-08-11T07:24:59.316Z,50.93
2022-08-11T07:28:04.248Z,49.89
2022-08-11T07:30:40.436Z,47.06
2022-08-11T07:33:19.022Z,48.12
2022-08-11T07:36:04.707Z,46.91
2022-08-11T07:38:46.066Z,46.37
2022-08-11T07:41:18.536Z,46.29
2022-08-11T07:43:51.670Z,46.09
2022-08-11T07:46:39.303Z,44.68
2022-08-11T07:49:28.600Z,45.51
2022-08-11T07:52:15.342Z,44.36
2022-08-11T07:54:51.158Z,44.66
2022-08-11T07:58:13.833Z,43.02
2022-08-11T08:00:51.645Z,42.55
2022-08-11T08:03:39.527Z,42.92
2022-08-11T08:06:41.695Z,42.30
2022-08-11T08:09:30.728Z,40.60
2022-08-11T08:12:22.380Z,38.95
2022-08-11T08:15:09.814Z,39.82
2022-08-11T08:18:10.070Z,39.97
2022-08-11T08:20:50.758Z,39.78
2022-08-11T08:23:33.436Z,39.29
2022-08-11T08:26:05.581Z,38.68
2022-08-11T08:28:36.475Z,37.95
2022-08-11T08:31:05.032Z,38.24
2022-08-11T08:33:34.463Z,37.74
2022-08-11T08:36:14.856Z,36.81
2022-08-11T08:38:50.398Z,37.18
2022-08-11T08:41:24.353Z,37.89
2022-08-11T08:44:27.366Z,36.86
2022-08-11T08:46:55.505Z,36.86
2022-08-11T08:49:33.642Z,37.04
2022-08-11T08:52:25.346Z,36.07
2022-08-11T08:55:05.649Z,36.35
2022-08-11T08:57:39.591Z,36.18
2022-08-11T09:00:12.495Z,35.88
2022-08-11T09:02:46.113Z,35.62
2022-08-11T09:05:18.551Z,35.22
2022-08-11T09:07:51.592Z,34.62
2022-08-11T09:10:22.904Z,35.29
2022-08-11T09:12:53.112Z,35.01
2022-08-11T09:15:26.193Z,34.88
2022-08-11T09:18:06.127Z,34.88
2022-08-11T09:20:37.483Z,35.25
2022-08-11T09:24:08.930Z,34.90
2022-08-11T09:26:34.970Z,35.35
2022-08-11T09:29:05.558Z,35.02
2022-08-11T09:31:40.146Z,35.13
2022-08-11T09:34:11.687Z,35.10
2022-08-11T09:37:02.170Z,35.12
2022-08-11T09:39:51.215Z,35.24
2022-08-11T09:42:23.951Z,34.90
2022-08-11T09:44:53.842Z,34.53
2022-08-11T09:47:29.690Z,35.14
2022-08-11T09:50:02.459Z,34.88
2022-08-11T09:52:37.171Z,34.29
2022-08-11T09:55:11.370Z,34.13
2022-08-11T09:58:00.127Z,33.96
2022-08-11T10:00:37.376Z,33.46
2022-08-11T10:03:13.812Z,32.90
2022-08-11T10:06:08.264Z,32.77
2022-08-11T10:08:41.992Z,31.60
2022-08-11T10:11:15.547Z,31.02
2022-08-11T10:14:31.430Z,30.52
2022-08-11T10:16:54.839Z,29.46
2022-08-11T10:19:26.277Z,28.39
2022-08-11T10:22:14.182Z,27.92
2022-08-11T10:28:29.010Z,27.53
2022-08-11T10:31:22.519Z,27.63
2022-08-11T10:34:04.002Z,27.23
2022-08-11T10:36:43.060Z,26.94
2022-08-11T10:39:18.248Z,26.59
2022-08-11T10:42:12.249Z,26.62
2022-08-11T10:44:47.199Z,26.65
2022-08-11T10:47:35.003Z,26.91
2022-08-11T10:50:26.427Z,26.61
2022-08-11T10:53:17.989Z,26.85
2022-08-11T10:56:06.345Z,27.30
2022-08-11T10:58:48.665Z,27.28
2022-08-11T11:01:28.591Z,26.33
2022-08-11T11:04:02.474Z,26.15
2022-08-11T11:06:44.943Z,26.31
2022-08-11T11:09:20.704Z,26.61
2022-08-11T11:12:12.537Z,27.38
2022-08-11T11:15:02.810Z,25.32
2022-08-11T11:17:57.749Z,25.41
2022-08-11T11:20:36.489Z,25.06
2022-08-11T11:23:13.669Z,24.37
2022-08-11T11:26:10.403Z,24.49
2022-08-11T11:29:22.542Z,24.78
2022-08-11T11:32:17.821Z,23.51
2022-08-11T11:35:32.084Z,24.05
2022-08-11T11:38:04.886Z,23.90
2022-08-11T11:40:37.557Z,22.62
2022-08-11T11:43:08.602Z,22.03
2022-08-11T11:45:38.071Z,21.37
2022-08-11T11:48:07.761Z,21.34
2022-08-11T11:50:39.440Z,21.94
2022-08-11T11:53:11.241Z,21.35
2022-08-11T11:55:40.608Z,21.27
2022-08-11T11:58:28.600Z,21.57
2022-08-11T12:01:17.664Z,22.03
2022-08-11T12:03:51.342Z,21.97
2022-08-11T12:06:25.427Z,22.42
2022-08-11T12:08:58.968Z,22.28
2022-08-11T12:11:48.103Z,21.25
2022-08-11T12:14:22.583Z,21.27
2022-08-11T12:16:52.001Z,21.55
2022-08-11T12:19:26.311Z,20.44
2022-08-11T12:22:15.961Z,21.31
2022-08-11T12:25:04.672Z,21.04
2022-08-11T12:27:33.672Z,20.18
2022-08-11T12:30:10.903Z,20.23
2022-08-11T12:32:42.242Z,19.58
2022-08-11T12:35:11.681Z,19.48
2022-08-11T12:37:45.937Z,20.02
2022-08-11T12:41:03.466Z,19.99
2022-08-11T12:43:57.137Z,19.20
2022-08-11T12:46:34.124Z,19.42
2022-08-11T12:49:31.087Z,19.83
2022-08-11T12:52:12.927Z,19.81
2022-08-11T12:54:52.838Z,19.03
2022-08-11T12:57:47.721Z,18.70
2022-08-11T13:00:36.361Z,19.13
2022-08-11T13:03:28.962Z,19.52
2022-08-11T13:06:00.148Z,19.44
2022-08-11T13:08:32.775Z,19.74
2022-08-11T13:11:21.503Z,18.97
2022-08-11T13:13:57.726Z,18.46
2022-08-11T13:16:31.993Z,18.00
2022-08-11T13:19:02.864Z,19.37
2022-08-11T13:21:32.891Z,18.41
2022-08-11T13:24:03.823Z,18.02
2022-08-11T13:26:47.772Z,18.04
2022-08-11T13:29:24.289Z,18.67
2022-08-11T13:31:57.058Z,18.16
2022-08-11T13:34:31.546Z,18.22
2022-08-11T13:37:05.385Z,19.38
2022-08-11T13:39:37.333Z,18.68
2022-08-11T13:42:07.652Z,18.63
2022-08-11T13:44:40.029Z,17.13
2022-08-11T13:47:13.227Z,17.12
2022-08-11T13:49:45.838Z,16.72
2022-08-11T13:52:17.996Z,16.99
2022-08-11T13:54:53.565Z,16.36
2022-08-11T13:58:09.072Z,15.34
2022-08-11T14:00:27.712Z,15.37
2022-08-11T14:02:59.424Z,14.29
2022-08-11T14:05:35.450Z,14.88
2022-08-11T14:08:38.086Z,14.77
2022-08-11T14:12:23.071Z,13.96
2022-08-11T14:14:27.668Z,13.73
2022-08-11T14:16:58.939Z,13.16
2022-08-11T14:19:30.542Z,12.71
2022-08-11T14:22:08.112Z,12.28
2022-08-11T14:24:41.130Z,12.38
2022-08-11T14:28:15.411Z,11.24
2022-08-11T14:30:02.819Z,11.32
2022-08-11T14:32:32.544Z,11.65
2022-08-11T14:35:03.339Z,11.44
2022-08-11T14:37:33.656Z,11.09
2022-08-11T14:40:24.144Z,11.47
2022-08-11T14:43:19.771Z,10.90
2022-08-11T14:46:26.695Z,11.16
2022-08-11T14:48:55.823Z,10.88
2022-08-11T14:51:25.340Z,11.83
2022-08-11T14:54:16.220Z,12.63
2022-08-11T14:56:44.929Z,13.27
2022-08-11T14:59:15.310Z,14.16
2022-08-11T15:02:03.065Z,14.97
2022-08-11T15:04:36.122Z,15.14
2022-08-11T15:07:16.660Z,15.87
2022-08-11T15:12:41.982Z,17.04
2022-08-11T15:15:30.222Z,17.32
2022-08-11T15:18:04.358Z,18.34
2022-08-11T15:20:53.818Z,17.89
2022-08-11T15:23:40.477Z,18.13
2022-08-11T15:26:17.221Z,18.85
2022-08-11T15:29:08.725Z,18.91
2022-08-11T15:31:57.618Z,18.72
2022-08-11T15:34:47.826Z,19.40
2022-08-11T15:37:31.549Z,19.97
2022-08-11T15:40:34.536Z,19.83
2022-08-11T15:43:32.253Z,19.76
2022-08-11T15:46:10.818Z,20.14
2022-08-11T15:48:48.508Z,20.58
2022-08-11T15:51:29.003Z,20.91
2022-08-11T15:54:08.560Z,20.53
2022-08-11T15:56:43.906Z,20.16
2022-08-11T15:59:41.870Z,20.71
2022-08-11T16:02:33.691Z,20.42
2022-08-11T16:05:08.115Z,19.95
2022-08-11T16:07:40.645Z,20.72
2022-08-11T16:10:19.094Z,20.95
2022-08-11T16:13:23.707Z,20.68
2022-08-11T16:16:15.568Z,21.21
2022-08-11T16:18:52.654Z,21.06
2022-08-11T16:21:34.638Z,21.43
2022-08-11T16:24:09.474Z,21.81
2022-08-11T16:27:10.505Z,21.82
2022-08-11T16:29:47.896Z,21.93
2022-08-11T16:32:23.678Z,21.84
2022-08-11T16:35:16.134Z,22.01
2022-08-11T16:38:06.571Z,22.03
2022-08-11T16:40:36.916Z,22.17
2022-08-11T16:43:27.685Z,22.51
2022-08-11T16:46:15.630Z,22.66
2022-08-11T16:48:50.634Z,22.86
2022-08-11T16:51:20.973Z,22.83
2022-08-11T16:54:04.339Z,23.06
2022-08-11T16:56:43.065Z,22.68
2022-08-11T16:59:19.966Z,23.15
2022-08-11T17:01:54.253Z,22.89
2022-08-11T17:04:54.880Z,22.98
2022-08-11T17:07:44.282Z,23.04
2022-08-11T17:10:53.396Z,22.74
2022-08-11T17:13:36.587Z,23.12
2022-08-11T17:16:12.716Z,23.51
2022-08-11T17:18:59.257Z,23.31
2022-08-11T17:21:35.067Z,23.84
2022-08-11T17:24:09.441Z,23.68
2022-08-11T17:26:57.130Z,24.33
2022-08-11T17:29:30.648Z,24.33
2022-08-11T17:32:21.112Z,23.99
2022-08-11T17:35:11.178Z,24.54
2022-08-11T17:37:44.263Z,25.32
2022-08-11T17:40:18.638Z,25.05
2022-08-11T17:43:05.794Z,25.17
2022-08-11T17:45:56.578Z,25.79
2022-08-11T17:48:27.999Z,25.98
2022-08-11T17:51:00.424Z,25.54
2022-08-11T17:54:13.424Z,26.22
2022-08-11T17:57:00.079Z,26.25
2022-08-11T17:59:49.304Z,27.05
2022-08-11T18:02:40.428Z,28.05
2022-08-11T18:05:13.530Z,27.60
2022-08-11T18:08:04.327Z,28.09
2022-08-11T18:10:54.294Z,27.95
2022-08-11T18:13:43.660Z,28.30
2022-08-11T18:16:30.979Z,28.80
2022-08-11T18:19:18.099Z,28.87
2022-08-11T18:22:14.959Z,29.25
2022-08-11T18:25:08.964Z,29.68
2022-08-11T18:28:02.962Z,30.22
2022-08-11T18:31:03.458Z,30.26
2022-08-11T18:34:14.250Z,30.31
2022-08-11T18:37:05.958Z,30.96
2022-08-11T18:40:00.746Z,30.78
2022-08-11T18:42:51.461Z,31.53
2022-08-11T18:45:45.641Z,31.45
2022-08-11T18:48:39.677Z,32.02
2022-08-11T18:51:30.897Z,31.91
2022-08-11T18:54:28.927Z,31.92
2022-08-11T18:57:21.289Z,32.18
2022-08-11T19:00:10.910Z,32.23
2022-08-11T19:03:00.364Z,32.62
2022-08-11T19:06:06.127Z,32.87
2022-08-11T19:09:05.245Z,33.33
2022-08-11T19:11:53.534Z,33.33
2022-08-11T19:14:43.884Z,33.50
2022-08-11T19:17:44.587Z,33.88
2022-08-11T19:20:38.247Z,33.72
2022-08-11T19:23:29.186Z,33.63
2022-08-11T19:26:17.390Z,34.15
2022-08-11T19:29:07.432Z,34.15
2022-08-11T19:31:55.744Z,34.65
2022-08-11T19:34:43.963Z,34.93
2022-08-11T19:37:32.177Z,34.71
2022-08-11T19:40:24.085Z,34.89
2022-08-11T19:43:18.778Z,34.96
2022-08-11T19:46:17.528Z,35.53
2022-08-11T19:49:08.410Z,35.50
2022-08-11T19:51:56.776Z,36.13
2022-08-11T19:54:48.711Z,35.87
2022-08-11T19:57:39.927Z,36.14
2022-08-11T20:00:31.826Z,36.04
2022-08-11T20:03:19.520Z,36.24
2022-08-11T20:06:07.416Z,36.40
2022-08-11T20:08:59.096Z,36.65
2022-08-11T20:11:51.846Z,36.52
2022-08-11T20:14:41.385Z,36.67
2022-08-11T20:17:31.135Z,37.14
2022-08-11T20:20:20.487Z,37.19
2022-08-11T20:23:09.537Z,37.02
2022-08-11T20:26:08.564Z,37.35
2022-08-11T20:29:09.121Z,37.52
2022-08-11T20:31:57.108Z,37.58
2022-08-11T20:34:43.890Z,38.07
2022-08-11T20:37:31.980Z,38.46
2022-08-11T20:40:23.866Z,38.53
2022-08-11T20:44:04.974Z,38.76
2022-08-11T20:46:21.369Z,39.08
2022-08-11T20:49:10.399Z,38.93
2022-08-11T20:52:01.081Z,38.80
2022-08-11T20:54:54.709Z,39.37
2022-08-11T20:58:00.163Z,39.67
2022-08-11T21:00:50.979Z,39.51
2022-08-11T21:03:45.265Z,39.77
2022-08-11T21:06:46.178Z,39.62
2022-08-11T21:12:43.260Z,40.22
2022-08-11T21:15:47.197Z,40.33
2022-08-11T21:18:41.843Z,40.47
2022-08-11T21:21:45.391Z,40.88
2022-08-11T21:24:37.145Z,40.94
2022-08-11T21:27:34.018Z,41.37
2022-08-11T21:30:22.523Z,41.19
2022-08-11T21:33:10.359Z,41.63
2022-08-11T21:35:58.657Z,41.43
2022-08-11T21:38:48.041Z,41.90
2022-08-11T21:41:36.349Z,41.75
2022-08-11T21:44:26.644Z,41.85
2022-08-11T21:47:21.038Z,42.28
2022-08-11T21:50:22.515Z,42.69
2022-08-11T21:53:11.232Z,43.00
2022-08-11T21:55:58.815Z,42.57
2022-08-11T21:58:45.789Z,42.69
2022-08-11T22:01:34.443Z,43.07
2022-08-11T22:04:22.666Z,43.23
2022-08-11T22:07:10.054Z,43.07
2022-08-11T22:09:58.412Z,43.43
2022-08-11T22:12:45.471Z,43.56
2022-08-11T22:15:31.901Z,43.41
2022-08-11T22:18:20.444Z,43.25
2022-08-11T22:21:09.370Z,43.42
2022-08-11T22:24:02.617Z,43.72
2022-08-11T22:26:54.825Z,43.21
2022-08-11T22:29:51.208Z,43.33
2022-08-11T22:32:42.031Z,43.67
2022-08-11T22:35:30.320Z,44.33
2022-08-11T22:38:18.565Z,44.47
2022-08-11T22:41:05.222Z,44.98
2022-08-11T22:43:53.133Z,44.96
2022-08-11T22:46:41.296Z,44.67
2022-08-11T22:49:30.565Z,45.17
2022-08-11T22:52:40.536Z,45.15
2022-08-11T22:55:28.894Z,45.17
2022-08-11T22:58:16.080Z,44.48
2022-08-11T23:01:04.395Z,45.15
2022-08-11T23:03:52.147Z,45.30
2022-08-11T23:06:40.302Z,45.50
2022-08-11T23:09:27.591Z,45.29
2022-08-11T23:12:16.197Z,45.74
2022-08-11T23:15:03.633Z,46.08
2022-08-11T23:17:51.486Z,46.24
2022-08-11T23:20:41.654Z,46.79
2022-08-11T23:23:35.959Z,46.86
2022-08-11T23:26:23.298Z,46.54
2022-08-11T23:29:11.411Z,46.55
2022-08-11T23:31:58.594Z,46.61
2022-08-11T23:35:04.043Z,46.94
2022-08-11T23:38:00.193Z,47.15
2022-08-11T23:40:46.855Z,47.11
2022-08-11T23:43:38.868Z,46.82
2022-08-11T23:46:25.493Z,47.27
2022-08-11T23:49:17.836Z,47.16
2022-08-11T23:52:07.666Z,47.22
2022-08-11T23:54:54.933Z,47.79
2022-08-11T23:57:47.985Z,48.04
